Aviation Digital Data Service (ADDS)

Output produced by METARs form (0412 UTC 19 August 2019)
found at http://www.aviationweather.gov/metar/data/
 
METAR text: BIAR 190400Z 32005KT 6000 -RA BKN025 BKN033 05/03 Q1009
Conditions at: BIAR (AKUREYRI , IS) observed 0400 UTC 19 August 2019
Temperature: 5.0°C (41°F)
Dewpoint: 3.0°C (37°F) [RH = 87%]
Pressure (altimeter): 29.79 inches Hg (1009.0 mb)
Winds: from the NW (320 degrees) at 6 MPH (5 knots; 2.6 m/s)
Visibility: 4 miles ( 6 km)
Ceiling: 2500 feet AGL
Clouds: broken clouds at 2500 feet AGL
broken clouds at 3300 feet AGL
Weather: -RA  (light rain)

METAR text: BIAR 190300Z 31008KT 9999 FEW013 SCT016 BKN036 06/03 Q1009
Conditions at: BIAR (AKUREYRI , IS) observed 0300 UTC 19 August 2019
Temperature: 6.0°C (43°F)
Dewpoint: 3.0°C (37°F) [RH = 81%]
Pressure (altimeter): 29.79 inches Hg (1009.0 mb)
Winds: from the NW (310 degrees) at 9 MPH (8 knots; 4.1 m/s)
Visibility: 6 or more miles (10+ km)
Ceiling: 3600 feet AGL
Clouds: few clouds at 1300 feet AGL
scattered clouds at 1600 feet AGL
broken clouds at 3600 feet AGL
Weather: no significant weather observed at this time

METAR text: BIAR 190200Z 33009KT 9999 -RA BKN014 OVC032 06/04 Q1009
Conditions at: BIAR (AKUREYRI , IS) observed 0200 UTC 19 August 2019
Temperature: 6.0°C (43°F)
Dewpoint: 4.0°C (39°F) [RH = 87%]
Pressure (altimeter): 29.79 inches Hg (1009.0 mb)
Winds: from the NNW (330 degrees) at 10 MPH (9 knots; 4.6 m/s)
Visibility: 6 or more miles (10+ km)
Ceiling: 1400 feet AGL
Clouds: broken clouds at 1400 feet AGL
overcast cloud deck at 3200 feet AGL
Weather: -RA  (light rain)

METAR text: BIAR 190100Z 33008KT 9999 -RA BKN016 OVC039 06/04 Q1009
Conditions at: BIAR (AKUREYRI , IS) observed 0100 UTC 19 August 2019
Temperature: 6.0°C (43°F)
Dewpoint: 4.0°C (39°F) [RH = 87%]
Pressure (altimeter): 29.79 inches Hg (1009.0 mb)
Winds: from the NNW (330 degrees) at 9 MPH (8 knots; 4.1 m/s)
Visibility: 6 or more miles (10+ km)
Ceiling: 1600 feet AGL
Clouds: broken clouds at 1600 feet AGL
overcast cloud deck at 3900 feet AGL
Weather: -RA  (light rain)

METAR text: BIAR 190000Z 32008KT 9999 -RA FEW027 BKN038 06/04 Q1009
Conditions at: BIAR (AKUREYRI , IS) observed 0000 UTC 19 August 2019
Temperature: 6.0°C (43°F)
Dewpoint: 4.0°C (39°F) [RH = 87%]
Pressure (altimeter): 29.79 inches Hg (1009.0 mb)
Winds: from the NW (320 degrees) at 9 MPH (8 knots; 4.1 m/s)
Visibility: 6 or more miles (10+ km)
Ceiling: 3800 feet AGL
Clouds: few clouds at 2700 feet AGL
broken clouds at 3800 feet AGL
Weather: -RA  (light rain)

METAR text: BIAR 182300Z 30008KT 9999 FEW010 SCT025 BKN038 06/04 Q1009 RMK WIND VADLAHEIDI 35010KT
Conditions at: BIAR (AKUREYRI , IS) observed 2300 UTC 18 August 2019
Temperature: 6.0°C (43°F)
Dewpoint: 4.0°C (39°F) [RH = 87%]
Pressure (altimeter): 29.79 inches Hg (1009.0 mb)
Winds: from the WNW (300 degrees) at 9 MPH (8 knots; 4.1 m/s)
Visibility: 6 or more miles (10+ km)
Ceiling: 3800 feet AGL
Clouds: few clouds at 1000 feet AGL
scattered clouds at 2500 feet AGL
broken clouds at 3800 feet AGL
Weather: no significant weather observed at this time

METAR text: BIAR 182200Z 32007KT 9999 -RA FEW011 SCT025 BKN038 06/04 Q1009 RMK WIND VADLAHEIDI 35010KT
Conditions at: BIAR (AKUREYRI , IS) observed 2200 UTC 18 August 2019
Temperature: 6.0°C (43°F)
Dewpoint: 4.0°C (39°F) [RH = 87%]
Pressure (altimeter): 29.79 inches Hg (1009.0 mb)
Winds: from the NW (320 degrees) at 8 MPH (7 knots; 3.6 m/s)
Visibility: 6 or more miles (10+ km)
Ceiling: 3800 feet AGL
Clouds: few clouds at 1100 feet AGL
scattered clouds at 2500 feet AGL
broken clouds at 3800 feet AGL
Weather: -RA  (light rain)

METAR text: BIAR 182100Z 35010KT 9999 -DZ SCT025 BKN038 07/03 Q1008 RMK WIND VADLAHEIDI 35010KT
Conditions at: BIAR (AKUREYRI , IS) observed 2100 UTC 18 August 2019
Temperature: 7.0°C (45°F)
Dewpoint: 3.0°C (37°F) [RH = 76%]
Pressure (altimeter): 29.76 inches Hg (1008.0 mb)
Winds: from the N (350 degrees) at 12 MPH (10 knots; 5.1 m/s)
Visibility: 6 or more miles (10+ km)
Ceiling: 3800 feet AGL
Clouds: scattered clouds at 2500 feet AGL
broken clouds at 3800 feet AGL
Weather: -DZ  (light drizzle)

METAR text: BIAR 182000Z 35009KT 310V010 9999 SCT025 BKN032 07/02 Q1008 RMK WIND VADLAHEIDI 01016KT
Conditions at: BIAR (AKUREYRI , IS) observed 2000 UTC 18 August 2019
Temperature: 7.0°C (45°F)
Dewpoint: 2.0°C (36°F) [RH = 70%]
Pressure (altimeter): 29.76 inches Hg (1008.0 mb)
Winds: from the N (350 degrees) at 10 MPH (9 knots; 4.6 m/s)
Visibility: 6 or more miles (10+ km)
Ceiling: 3200 feet AGL
Clouds: scattered clouds at 2500 feet AGL
broken clouds at 3200 feet AGL
Weather: no significant weather observed at this time

METAR text: BIAR 181900Z 35010KT 9999 SCT025 BKN032 08/02 Q1007 RMK WIND VADLAHEIDI 01016KT
Conditions at: BIAR (AKUREYRI , IS) observed 1900 UTC 18 August 2019
Temperature: 8.0°C (46°F)
Dewpoint: 2.0°C (36°F) [RH = 66%]
Pressure (altimeter): 29.73 inches Hg (1007.0 mb)
Winds: from the N (350 degrees) at 12 MPH (10 knots; 5.1 m/s)
Visibility: 6 or more miles (10+ km)
Ceiling: 3200 feet AGL
Clouds: scattered clouds at 2500 feet AGL
broken clouds at 3200 feet AGL
Weather: no significant weather observed at this time

METAR text: BIAR 181800Z 35012KT 9999 FEW017 SCT025 BKN032 08/04 Q1007 RMK WIND VADLAHEIDI 01016KT
Conditions at: BIAR (AKUREYRI , IS) observed 1800 UTC 18 August 2019
Temperature: 8.0°C (46°F)
Dewpoint: 4.0°C (39°F) [RH = 76%]
Pressure (altimeter): 29.73 inches Hg (1007.0 mb)
Winds: from the N (350 degrees) at 14 MPH (12 knots; 6.2 m/s)
Visibility: 6 or more miles (10+ km)
Ceiling: 3200 feet AGL
Clouds: few clouds at 1700 feet AGL
scattered clouds at 2500 feet AGL
broken clouds at 3200 feet AGL
Weather: no significant weather observed at this time

METAR text: BIAR 181700Z 35014KT 9999 -RA FEW017 SCT025 BKN032 08/04 Q1007 RMK WIND VADLAHEIDI 01016KT
Conditions at: BIAR (AKUREYRI , IS) observed 1700 UTC 18 August 2019
Temperature: 8.0°C (46°F)
Dewpoint: 4.0°C (39°F) [RH = 76%]
Pressure (altimeter): 29.73 inches Hg (1007.0 mb)
Winds: from the N (350 degrees) at 16 MPH (14 knots; 7.2 m/s)
Visibility: 6 or more miles (10+ km)
Ceiling: 3200 feet AGL
Clouds: few clouds at 1700 feet AGL
scattered clouds at 2500 feet AGL
broken clouds at 3200 feet AGL
Weather: -RA  (light rain)

METAR text: BIAR 181600Z 35014KT 9999 -DZ FEW017 SCT025 BKN032 08/04 Q1007 RMK WIND VADLAHEIDI 01016KT
Conditions at: BIAR (AKUREYRI , IS) observed 1600 UTC 18 August 2019
Temperature: 8.0°C (46°F)
Dewpoint: 4.0°C (39°F) [RH = 76%]
Pressure (altimeter): 29.73 inches Hg (1007.0 mb)
Winds: from the N (350 degrees) at 16 MPH (14 knots; 7.2 m/s)
Visibility: 6 or more miles (10+ km)
Ceiling: 3200 feet AGL
Clouds: few clouds at 1700 feet AGL
scattered clouds at 2500 feet AGL
broken clouds at 3200 feet AGL
Weather: -DZ  (light drizzle)

METAR text: BIAR 181500Z 35014KT 9999 SCT025 BKN032 08/05 Q1006 RMK WIND VADLAHEIDI 34016KT
Conditions at: BIAR (AKUREYRI , IS) observed 1500 UTC 18 August 2019
Temperature: 8.0°C (46°F)
Dewpoint: 5.0°C (41°F) [RH = 81%]
Pressure (altimeter): 29.70 inches Hg (1006.0 mb)
Winds: from the N (350 degrees) at 16 MPH (14 knots; 7.2 m/s)
Visibility: 6 or more miles (10+ km)
Ceiling: 3200 feet AGL
Clouds: scattered clouds at 2500 feet AGL
broken clouds at 3200 feet AGL
Weather: no significant weather observed at this time

METAR text: BIAR 181400Z 35014KT 9999 BKN031 08/04 Q1006 RMK WIND VADLAHEIDI 34017KT
Conditions at: BIAR (AKUREYRI , IS) observed 1400 UTC 18 August 2019
Temperature: 8.0°C (46°F)
Dewpoint: 4.0°C (39°F) [RH = 76%]
Pressure (altimeter): 29.70 inches Hg (1006.0 mb)
Winds: from the N (350 degrees) at 16 MPH (14 knots; 7.2 m/s)
Visibility: 6 or more miles (10+ km)
Ceiling: 3100 feet AGL
Clouds: broken clouds at 3100 feet AGL
Weather: no significant weather observed at this time

METAR text: BIAR 181300Z 35014KT 9999 BKN027 08/03 Q1006 RMK WIND VADLAHEIDI 33019KT
Conditions at: BIAR (AKUREYRI , IS) observed 1300 UTC 18 August 2019
Temperature: 8.0°C (46°F)
Dewpoint: 3.0°C (37°F) [RH = 71%]
Pressure (altimeter): 29.70 inches Hg (1006.0 mb)
Winds: from the N (350 degrees) at 16 MPH (14 knots; 7.2 m/s)
Visibility: 6 or more miles (10+ km)
Ceiling: 2700 feet AGL
Clouds: broken clouds at 2700 feet AGL
Weather: no significant weather observed at this time

METAR text: BIAR 181200Z 35013KT 9999 FEW021 BKN026 OVC038 07/03 Q1006 RMK WIND VADLAHEIDI 01015KT
Conditions at: BIAR (AKUREYRI , IS) observed 1200 UTC 18 August 2019
Temperature: 7.0°C (45°F)
Dewpoint: 3.0°C (37°F) [RH = 76%]
Pressure (altimeter): 29.70 inches Hg (1006.0 mb)
Winds: from the N (350 degrees) at 15 MPH (13 knots; 6.7 m/s)
Visibility: 6 or more miles (10+ km)
Ceiling: 2600 feet AGL
Clouds: few clouds at 2100 feet AGL
broken clouds at 2600 feet AGL
overcast cloud deck at 3800 feet AGL
Weather: no significant weather observed at this time

METAR text: BIAR 181100Z 34011KT 9999 FEW019 BKN028 OVC039 07/02 Q1006 RMK WIND VADLAHEIDI 01013KT
Conditions at: BIAR (AKUREYRI , IS) observed 1100 UTC 18 August 2019
Temperature: 7.0°C (45°F)
Dewpoint: 2.0°C (36°F) [RH = 70%]
Pressure (altimeter): 29.70 inches Hg (1006.0 mb)
Winds: from the NNW (340 degrees) at 13 MPH (11 knots; 5.7 m/s)
Visibility: 6 or more miles (10+ km)
Ceiling: 2800 feet AGL
Clouds: few clouds at 1900 feet AGL
broken clouds at 2800 feet AGL
overcast cloud deck at 3900 feet AGL
Weather: no significant weather observed at this time

METAR text: BIAR 181000Z 33012KT 9999 FEW019 BKN029 OVC037 07/03 Q1006 RMK WIND VADLAHEIDI 01013KT
Conditions at: BIAR (AKUREYRI , IS) observed 1000 UTC 18 August 2019
Temperature: 7.0°C (45°F)
Dewpoint: 3.0°C (37°F) [RH = 76%]
Pressure (altimeter): 29.70 inches Hg (1006.0 mb)
Winds: from the NNW (330 degrees) at 14 MPH (12 knots; 6.2 m/s)
Visibility: 6 or more miles (10+ km)
Ceiling: 2900 feet AGL
Clouds: few clouds at 1900 feet AGL
broken clouds at 2900 feet AGL
overcast cloud deck at 3700 feet AGL
Weather: no significant weather observed at this time

METAR text: BIAR 180900Z 33011KT 9999 FEW017 BKN025 OVC034 07/03 Q1006 RMK WIND VADLAHEIDI 36015KT
Conditions at: BIAR (AKUREYRI , IS) observed 0900 UTC 18 August 2019
Temperature: 7.0°C (45°F)
Dewpoint: 3.0°C (37°F) [RH = 76%]
Pressure (altimeter): 29.70 inches Hg (1006.0 mb)
Winds: from the NNW (330 degrees) at 13 MPH (11 knots; 5.7 m/s)
Visibility: 6 or more miles (10+ km)
Ceiling: 2500 feet AGL
Clouds: few clouds at 1700 feet AGL
broken clouds at 2500 feet AGL
overcast cloud deck at 3400 feet AGL
Weather: no significant weather observed at this time

METAR text: BIAR 180800Z 35012KT 9999 FEW017 BKN023 OVC033 07/03 Q1005 RMK WIND VADLAHEIDI 36015KT
Conditions at: BIAR (AKUREYRI , IS) observed 0800 UTC 18 August 2019
Temperature: 7.0°C (45°F)
Dewpoint: 3.0°C (37°F) [RH = 76%]
Pressure (altimeter): 29.68 inches Hg (1005.0 mb)
Winds: from the N (350 degrees) at 14 MPH (12 knots; 6.2 m/s)
Visibility: 6 or more miles (10+ km)
Ceiling: 2300 feet AGL
Clouds: few clouds at 1700 feet AGL
broken clouds at 2300 feet AGL
overcast cloud deck at 3300 feet AGL
Weather: no significant weather observed at this time

METAR text: BIAR 180700Z 34015KT 9999 FEW016 OVC027 07/03 Q1005 RMK WIND VADLAHEIDI 00516KT
Conditions at: BIAR (AKUREYRI , IS) observed 0700 UTC 18 August 2019
Temperature: 7.0°C (45°F)
Dewpoint: 3.0°C (37°F) [RH = 76%]
Pressure (altimeter): 29.68 inches Hg (1005.0 mb)
Winds: from the NNW (340 degrees) at 17 MPH (15 knots; 7.7 m/s)
Visibility: 6 or more miles (10+ km)
Ceiling: 2700 feet AGL
Clouds: few clouds at 1600 feet AGL
overcast cloud deck at 2700 feet AGL
Weather: no significant weather observed at this time

METAR text: BIAR 180600Z 33010KT 9999 FEW012 SCT016 OVC035 06/04 Q1005
Conditions at: BIAR (AKUREYRI , IS) observed 0600 UTC 18 August 2019
Temperature: 6.0°C (43°F)
Dewpoint: 4.0°C (39°F) [RH = 87%]
Pressure (altimeter): 29.68 inches Hg (1005.0 mb)
Winds: from the NNW (330 degrees) at 12 MPH (10 knots; 5.1 m/s)
Visibility: 6 or more miles (10+ km)
Ceiling: 3500 feet AGL
Clouds: few clouds at 1200 feet AGL
scattered clouds at 1600 feet AGL
overcast cloud deck at 3500 feet AGL
Weather: no significant weather observed at this time

METAR text: BIAR 180500Z 33012KT 9999 OVC019 07/04 Q1005
Conditions at: BIAR (AKUREYRI , IS) observed 0500 UTC 18 August 2019
Temperature: 7.0°C (45°F)
Dewpoint: 4.0°C (39°F) [RH = 81%]
Pressure (altimeter): 29.68 inches Hg (1005.0 mb)
Winds: from the NNW (330 degrees) at 14 MPH (12 knots; 6.2 m/s)
Visibility: 6 or more miles (10+ km)
Ceiling: 1900 feet AGL
Clouds: overcast cloud deck at 1900 feet AGL
Weather: no significant weather observed at this time

METAR text: BIAR 180400Z 36017KT 9999 BKN018 BKN029 OVC050 07/04 Q1004
Conditions at: BIAR (AKUREYRI , IS) observed 0400 UTC 18 August 2019
Temperature: 7.0°C (45°F)
Dewpoint: 4.0°C (39°F) [RH = 81%]
Pressure (altimeter): 29.65 inches Hg (1004.0 mb)
Winds: from the N (360 degrees) at 20 MPH (17 knots; 8.7 m/s)
Visibility: 6 or more miles (10+ km)
Ceiling: 1800 feet AGL
Clouds: broken clouds at 1800 feet AGL
broken clouds at 2900 feet AGL
overcast cloud deck at 5000 feet AGL
Weather: no significant weather observed at this time

METAR text: BIAR 180300Z 35015KT 9999 BKN017 OVC036 07/04 Q1004
Conditions at: BIAR (AKUREYRI , IS) observed 0300 UTC 18 August 2019
Temperature: 7.0°C (45°F)
Dewpoint: 4.0°C (39°F) [RH = 81%]
Pressure (altimeter): 29.65 inches Hg (1004.0 mb)
Winds: from the N (350 degrees) at 17 MPH (15 knots; 7.7 m/s)
Visibility: 6 or more miles (10+ km)
Ceiling: 1700 feet AGL
Clouds: broken clouds at 1700 feet AGL
overcast cloud deck at 3600 feet AGL
Weather: no significant weather observed at this time

METAR text: BIAR 180200Z 34015KT 9999 SCT016 OVC019 07/04 Q1004
Conditions at: BIAR (AKUREYRI , IS) observed 0200 UTC 18 August 2019
Temperature: 7.0°C (45°F)
Dewpoint: 4.0°C (39°F) [RH = 81%]
Pressure (altimeter): 29.65 inches Hg (1004.0 mb)
Winds: from the NNW (340 degrees) at 17 MPH (15 knots; 7.7 m/s)
Visibility: 6 or more miles (10+ km)
Ceiling: 1900 feet AGL
Clouds: scattered clouds at 1600 feet AGL
overcast cloud deck at 1900 feet AGL
Weather: no significant weather observed at this time

METAR text: BIAR 180100Z 34013KT 9999 BKN017 OVC039 07/04 Q1004
Conditions at: BIAR (AKUREYRI , IS) observed 0100 UTC 18 August 2019
Temperature: 7.0°C (45°F)
Dewpoint: 4.0°C (39°F) [RH = 81%]
Pressure (altimeter): 29.65 inches Hg (1004.0 mb)
Winds: from the NNW (340 degrees) at 15 MPH (13 knots; 6.7 m/s)
Visibility: 6 or more miles (10+ km)
Ceiling: 1700 feet AGL
Clouds: broken clouds at 1700 feet AGL
overcast cloud deck at 3900 feet AGL
Weather: no significant weather observed at this time

METAR text: BIAR 180000Z 34014KT 9999 FEW014 BKN027 OVC041 08/05 Q1004
Conditions at: BIAR (AKUREYRI , IS) observed 0000 UTC 18 August 2019
Temperature: 8.0°C (46°F)
Dewpoint: 5.0°C (41°F) [RH = 81%]
Pressure (altimeter): 29.65 inches Hg (1004.0 mb)
Winds: from the NNW (340 degrees) at 16 MPH (14 knots; 7.2 m/s)
Visibility: 6 or more miles (10+ km)
Ceiling: 2700 feet AGL
Clouds: few clouds at 1400 feet AGL
broken clouds at 2700 feet AGL
overcast cloud deck at 4100 feet AGL
Weather: no significant weather observed at this time

METAR text: BIAR 172300Z 34014KT 9999 FEW009 OVC023 08/05 Q1004 RMK WIND VADLAHEIDI 01016KT
Conditions at: BIAR (AKUREYRI , IS) observed 2300 UTC 17 August 2019
Temperature: 8.0°C (46°F)
Dewpoint: 5.0°C (41°F) [RH = 81%]
Pressure (altimeter): 29.65 inches Hg (1004.0 mb)
Winds: from the NNW (340 degrees) at 16 MPH (14 knots; 7.2 m/s)
Visibility: 6 or more miles (10+ km)
Ceiling: 2300 feet AGL
Clouds: few clouds at 900 feet AGL
overcast cloud deck at 2300 feet AGL
Weather: no significant weather observed at this time

METAR text: BIAR 172200Z 34012KT 9999 FEW009 BKN023 08/05 Q1004 RMK WIND VADLAHEIDI 01016KT
Conditions at: BIAR (AKUREYRI , IS) observed 2200 UTC 17 August 2019
Temperature: 8.0°C (46°F)
Dewpoint: 5.0°C (41°F) [RH = 81%]
Pressure (altimeter): 29.65 inches Hg (1004.0 mb)
Winds: from the NNW (340 degrees) at 14 MPH (12 knots; 6.2 m/s)
Visibility: 6 or more miles (10+ km)
Ceiling: 2300 feet AGL
Clouds: few clouds at 900 feet AGL
broken clouds at 2300 feet AGL
Weather: no significant weather observed at this time

METAR text: BIAR 172100Z 34011KT 9999 -DZ FEW009 BKN023 08/05 Q1004 RMK WIND VADLAHEIDI 01016KT
Conditions at: BIAR (AKUREYRI , IS) observed 2100 UTC 17 August 2019
Temperature: 8.0°C (46°F)
Dewpoint: 5.0°C (41°F) [RH = 81%]
Pressure (altimeter): 29.65 inches Hg (1004.0 mb)
Winds: from the NNW (340 degrees) at 13 MPH (11 knots; 5.7 m/s)
Visibility: 6 or more miles (10+ km)
Ceiling: 2300 feet AGL
Clouds: few clouds at 900 feet AGL
broken clouds at 2300 feet AGL
Weather: -DZ  (light drizzle)

METAR text: BIAR 172000Z 33011KT 9999 BKN018 OVC030 08/05 Q1003 RMK WIND VADLAHEIDI 01016KT
Conditions at: BIAR (AKUREYRI , IS) observed 2000 UTC 17 August 2019
Temperature: 8.0°C (46°F)
Dewpoint: 5.0°C (41°F) [RH = 81%]
Pressure (altimeter): 29.62 inches Hg (1003.0 mb)
Winds: from the NNW (330 degrees) at 13 MPH (11 knots; 5.7 m/s)
Visibility: 6 or more miles (10+ km)
Ceiling: 1800 feet AGL
Clouds: broken clouds at 1800 feet AGL
overcast cloud deck at 3000 feet AGL
Weather: no significant weather observed at this time

METAR text: BIAR 171900Z 35016KT 9999 FEW012 BKN026 09/05 Q1003 RMK WIND VADLAHEIDI 01016KT
Conditions at: BIAR (AKUREYRI , IS) observed 1900 UTC 17 August 2019
Temperature: 9.0°C (48°F)
Dewpoint: 5.0°C (41°F) [RH = 76%]
Pressure (altimeter): 29.62 inches Hg (1003.0 mb)
Winds: from the N (350 degrees) at 18 MPH (16 knots; 8.2 m/s)
Visibility: 6 or more miles (10+ km)
Ceiling: 2600 feet AGL
Clouds: few clouds at 1200 feet AGL
broken clouds at 2600 feet AGL
Weather: no significant weather observed at this time

METAR text: BIAR 171800Z 33013KT 9999 -DZ FEW012 BKN026 09/06 Q1003 RMK WIND VADLAHEIDI 01016KT
Conditions at: BIAR (AKUREYRI , IS) observed 1800 UTC 17 August 2019
Temperature: 9.0°C (48°F)
Dewpoint: 6.0°C (43°F) [RH = 81%]
Pressure (altimeter): 29.62 inches Hg (1003.0 mb)
Winds: from the NNW (330 degrees) at 15 MPH (13 knots; 6.7 m/s)
Visibility: 6 or more miles (10+ km)
Ceiling: 2600 feet AGL
Clouds: few clouds at 1200 feet AGL
broken clouds at 2600 feet AGL
Weather: -DZ  (light drizzle)

METAR text: BIAR 171700Z 34011KT 9999 -RA FEW015 OVC026 09/05 Q1002 RMK WIND VADLAHEIDI 36020KT
Conditions at: BIAR (AKUREYRI , IS) observed 1700 UTC 17 August 2019
Temperature: 9.0°C (48°F)
Dewpoint: 5.0°C (41°F) [RH = 76%]
Pressure (altimeter): 29.59 inches Hg (1002.0 mb)
Winds: from the NNW (340 degrees) at 13 MPH (11 knots; 5.7 m/s)
Visibility: 6 or more miles (10+ km)
Ceiling: 2600 feet AGL
Clouds: few clouds at 1500 feet AGL
overcast cloud deck at 2600 feet AGL
Weather: -RA  (light rain)

Forecast for: BIAR (AKUREYRI , IS)
Text: TAF BIAR 190401Z 1906/2006 34012KT 9999 -SHRA SCT025 BKN035 TX09/1915Z TN02/2006Z
Forecast period: 0600 to 1500 UTC 19 August 2019
Forecast type: FROM: standard forecast or significant change
Winds: from the NNW (340 degrees) at 14 MPH (12 knots; 6.2 m/s)
Visibility: 6 or more miles 10+ km)
Ceiling: 3500 feet AGL
Clouds: scattered clouds at 2500 feet AGL
broken clouds at 3500 feet AGL
Weather: -SHRA  (light rain showers)
Text: BECMG 1915/1918 VRB03KT NSW
Forecast period: 1500 UTC 19 August 2019 to 0000 UTC 20 August 2019
Forecast type: BECOMING: Conditions expected to become as follows by 1800 UTC 19 August 2019
Winds: variable direction winds at 3 MPH (3 knots; 1.5 m/s)
Visibility: 6 or more miles 10+ km)
Ceiling: 3500 feet AGL
Clouds: scattered clouds at 2500 feet AGL
broken clouds at 3500 feet AGL
Weather: NSW  (no significant weather)
Text: BECMG 2000/2003 FEW018 SCT030
Forecast period: 0000 to 0600 UTC 20 August 2019
Forecast type: BECOMING: Conditions expected to become as follows by 0300 UTC 20 August 2019
Winds: variable direction winds at 3 MPH (3 knots; 1.5 m/s)
Visibility: 6 or more miles 10+ km)
Ceiling: at least 12,000 feet AGL
Clouds: few clouds at 1800 feet AGL
scattered clouds at 3000 feet AGL
Weather: NSW  (no significant weather)